sensor_id;sensor_type;location;lat;lon;timestamp;temperature;humidity
1812;DHT22;904;47.814;11.134;2023-09-07T07:46:11;33.60;29.10
1812;DHT22;904;47.814;11.134;2023-09-07T07:48:41;41.30;27.90
1812;DHT22;904;47.814;11.134;2023-09-07T07:51:08;42.40;27.50
1812;DHT22;904;47.814;11.134;2023-09-07T07:53:35;43.50;24.80
1812;DHT22;904;47.814;11.134;2023-09-07T07:56:02;44.40;23.80
1812;DHT22;904;47.814;11.134;2023-09-07T07:58:31;45.30;23.00
1812;DHT22;904;47.814;11.134;2023-09-07T08:00:58;46.40;21.70
1812;DHT22;904;47.814;11.134;2023-09-07T08:03:27;47.30;21.20
1812;DHT22;904;47.814;11.134;2023-09-07T08:05:54;48.00;20.30
1812;DHT22;904;47.814;11.134;2023-09-07T08:08:21;48.70;19.80
1812;DHT22;904;47.814;11.134;2023-09-07T08:10:48;49.30;19.00
1812;DHT22;904;47.814;11.134;2023-09-07T08:13:15;49.80;17.90
1812;DHT22;904;47.814;11.134;2023-09-07T08:15:44;50.30;17.40
1812;DHT22;904;47.814;11.134;2023-09-07T08:18:12;50.80;17.40
1812;DHT22;904;47.814;11.134;2023-09-07T08:20:39;51.40;16.90
1812;DHT22;904;47.814;11.134;2023-09-07T08:23:07;51.90;16.50
1812;DHT22;904;47.814;11.134;2023-09-07T08:25:36;52.40;15.90
1812;DHT22;904;47.814;11.134;2023-09-07T08:28:04;52.80;15.80
1812;DHT22;904;47.814;11.134;2023-09-07T08:30:33;53.20;14.90
1812;DHT22;904;47.814;11.134;2023-09-07T08:33:01;53.40;13.80
1812;DHT22;904;47.814;11.134;2023-09-07T08:35:30;53.60;14.10
1812;DHT22;904;47.814;11.134;2023-09-07T08:38:00;54.00;13.10
1812;DHT22;904;47.814;11.134;2023-09-07T08:40:34;54.30;13.60
1812;DHT22;904;47.814;11.134;2023-09-07T08:43:03;54.60;13.20
1812;DHT22;904;47.814;11.134;2023-09-07T08:45:35;54.70;13.20
1812;DHT22;904;47.814;11.134;2023-09-07T08:48:08;54.90;13.50
1812;DHT22;904;47.814;11.134;2023-09-07T08:50:36;55.20;13.10
1812;DHT22;904;47.814;11.134;2023-09-07T08:53:03;55.40;13.20
1812;DHT22;904;47.814;11.134;2023-09-07T08:55:31;55.80;12.50
1812;DHT22;904;47.814;11.134;2023-09-07T08:58:00;56.20;12.10
1812;DHT22;904;47.814;11.134;2023-09-07T09:00:27;56.50;12.00
1812;DHT22;904;47.814;11.134;2023-09-07T09:02:56;56.60;11.00
1812;DHT22;904;47.814;11.134;2023-09-07T09:05:31;56.50;11.40
1812;DHT22;904;47.814;11.134;2023-09-07T09:08:02;56.50;11.20
1812;DHT22;904;47.814;11.134;2023-09-07T09:10:29;56.60;11.70
1812;DHT22;904;47.814;11.134;2023-09-07T09:12:57;56.90;11.40
1812;DHT22;904;47.814;11.134;2023-09-07T09:15:25;57.20;11.50
1812;DHT22;904;47.814;11.134;2023-09-07T09:17:52;57.50;11.50
1812;DHT22;904;47.814;11.134;2023-09-07T09:20:21;57.80;11.40
1812;DHT22;904;47.814;11.134;2023-09-07T09:22:52;58.00;11.10
1812;DHT22;904;47.814;11.134;2023-09-07T09:25:19;58.30;11.20
1812;DHT22;904;47.814;11.134;2023-09-07T09:27:46;58.30;11.00
1812;DHT22;904;47.814;11.134;2023-09-07T09:30:13;58.50;11.10
1812;DHT22;904;47.814;11.134;2023-09-07T09:32:42;58.90;10.90
1812;DHT22;904;47.814;11.134;2023-09-07T09:35:09;59.10;10.50
1812;DHT22;904;47.814;11.134;2023-09-07T09:37:46;59.40;10.60
1812;DHT22;904;47.814;11.134;2023-09-07T09:40:16;59.60;10.00
1812;DHT22;904;47.814;11.134;2023-09-07T09:42:44;59.80;10.40
1812;DHT22;904;47.814;11.134;2023-09-07T09:45:12;59.70;10.60
1812;DHT22;904;47.814;11.134;2023-09-07T09:47:40;59.90;10.30
1812;DHT22;904;47.814;11.134;2023-09-07T09:50:11;60.10;10.30
1812;DHT22;904;47.814;11.134;2023-09-07T09:52:38;60.20;10.20
1812;DHT22;904;47.814;11.134;2023-09-07T09:55:06;60.20;10.20
1812;DHT22;904;47.814;11.134;2023-09-07T09:57:35;60.20;9.70
1812;DHT22;904;47.814;11.134;2023-09-07T10:00:04;60.30;9.90
1812;DHT22;904;47.814;11.134;2023-09-07T10:02:49;60.50;10.00
1812;DHT22;904;47.814;11.134;2023-09-07T10:05:17;60.60;9.90
1812;DHT22;904;47.814;11.134;2023-09-07T10:07:47;60.60;10.00
1812;DHT22;904;47.814;11.134;2023-09-07T10:10:15;60.70;10.30
1812;DHT22;904;47.814;11.134;2023-09-07T10:12:44;60.80;9.80
1812;DHT22;904;47.814;11.134;2023-09-07T10:15:29;60.90;9.20
1812;DHT22;904;47.814;11.134;2023-09-07T10:18:06;61.10;9.70
1812;DHT22;904;47.814;11.134;2023-09-07T10:20:54;61.10;9.50
1812;DHT22;904;47.814;11.134;2023-09-07T10:23:22;61.20;9.50
1812;DHT22;904;47.814;11.134;2023-09-07T10:25:50;61.20;10.00
1812;DHT22;904;47.814;11.134;2023-09-07T10:28:23;61.20;9.70
1812;DHT22;904;47.814;11.134;2023-09-07T10:31:01;61.30;9.30
1812;DHT22;904;47.814;11.134;2023-09-07T10:33:30;61.30;9.80
1812;DHT22;904;47.814;11.134;2023-09-07T10:35:57;61.20;9.60
1812;DHT22;904;47.814;11.134;2023-09-07T10:38:24;61.20;9.70
1812;DHT22;904;47.814;11.134;2023-09-07T10:40:55;61.30;9.20
1812;DHT22;904;47.814;11.134;2023-09-07T10:43:25;61.30;9.60
1812;DHT22;904;47.814;11.134;2023-09-07T10:45:53;61.40;9.80
1812;DHT22;904;47.814;11.134;2023-09-07T10:48:21;61.30;9.90
1812;DHT22;904;47.814;11.134;2023-09-07T10:50:48;61.30;9.60
1812;DHT22;904;47.814;11.134;2023-09-07T10:53:24;61.30;9.70
1812;DHT22;904;47.814;11.134;2023-09-07T10:55:53;61.10;8.90
1812;DHT22;904;47.814;11.134;2023-09-07T10:58:31;60.70;9.90
1812;DHT22;904;47.814;11.134;2023-09-07T11:00:59;60.60;10.00
1812;DHT22;904;47.814;11.134;2023-09-07T11:03:27;60.70;9.90
1812;DHT22;904;47.814;11.134;2023-09-07T11:05:56;60.70;10.00
1812;DHT22;904;47.814;11.134;2023-09-07T11:08:25;60.70;10.00
1812;DHT22;904;47.814;11.134;2023-09-07T11:10:53;60.70;9.70
1812;DHT22;904;47.814;11.134;2023-09-07T11:13:21;60.60;10.30
1812;DHT22;904;47.814;11.134;2023-09-07T11:15:52;60.40;10.20
1812;DHT22;904;47.814;11.134;2023-09-07T11:18:20;60.40;10.10
1812;DHT22;904;47.814;11.134;2023-09-07T11:20:49;60.20;10.30
1812;DHT22;904;47.814;11.134;2023-09-07T11:23:18;60.00;9.90
1812;DHT22;904;47.814;11.134;2023-09-07T11:25:47;60.00;10.50
1812;DHT22;904;47.814;11.134;2023-09-07T11:28:16;59.90;10.50
1812;DHT22;904;47.814;11.134;2023-09-07T11:30:51;59.80;10.70
1812;DHT22;904;47.814;11.134;2023-09-07T11:33:20;59.70;10.60
1812;DHT22;904;47.814;11.134;2023-09-07T11:35:47;59.60;10.90
1812;DHT22;904;47.814;11.134;2023-09-07T11:38:15;59.50;10.70
1812;DHT22;904;47.814;11.134;2023-09-07T11:40:43;59.30;10.80
1812;DHT22;904;47.814;11.134;2023-09-07T11:43:11;59.00;11.20
1812;DHT22;904;47.814;11.134;2023-09-07T11:45:39;58.80;11.10
1812;DHT22;904;47.814;11.134;2023-09-07T11:48:07;58.90;10.70
1812;DHT22;904;47.814;11.134;2023-09-07T11:50:35;58.70;10.90
1812;DHT22;904;47.814;11.134;2023-09-07T11:53:02;58.30;11.90
1812;DHT22;904;47.814;11.134;2023-09-07T11:55:29;57.90;11.70
1812;DHT22;904;47.814;11.134;2023-09-07T11:57:57;57.50;11.80
1812;DHT22;904;47.814;11.134;2023-09-07T12:00:24;57.20;12.00
1812;DHT22;904;47.814;11.134;2023-09-07T12:02:51;56.70;11.60
1812;DHT22;904;47.814;11.134;2023-09-07T12:05:20;55.90;12.30
1812;DHT22;904;47.814;11.134;2023-09-07T12:07:47;54.70;12.70
1812;DHT22;904;47.814;11.134;2023-09-07T12:10:14;53.70;13.50
1812;DHT22;904;47.814;11.134;2023-09-07T12:12:41;52.70;14.00
1812;DHT22;904;47.814;11.134;2023-09-07T12:15:08;51.90;14.20
1812;DHT22;904;47.814;11.134;2023-09-07T12:17:37;50.80;14.70
1812;DHT22;904;47.814;11.134;2023-09-07T12:20:05;49.80;15.60
1812;DHT22;904;47.814;11.134;2023-09-07T12:22:37;49.00;15.90
1812;DHT22;904;47.814;11.134;2023-09-07T12:25:04;48.00;16.10
1812;DHT22;904;47.814;11.134;2023-09-07T12:27:33;47.20;17.50
1812;DHT22;904;47.814;11.134;2023-09-07T12:30:00;46.20;17.70
1812;DHT22;904;47.814;11.134;2023-09-07T12:32:31;45.30;18.00
1812;DHT22;904;47.814;11.134;2023-09-07T12:34:59;44.40;18.30
1812;DHT22;904;47.814;11.134;2023-09-07T12:37:26;43.70;19.60
1812;DHT22;904;47.814;11.134;2023-09-07T12:39:54;43.10;19.70
1812;DHT22;904;47.814;11.134;2023-09-07T12:42:22;42.30;20.00
1812;DHT22;904;47.814;11.134;2023-09-07T12:44:50;41.60;20.90
1812;DHT22;904;47.814;11.134;2023-09-07T12:47:16;41.10;22.20
1812;DHT22;904;47.814;11.134;2023-09-07T12:49:43;40.40;22.80
1812;DHT22;904;47.814;11.134;2023-09-07T12:52:11;39.80;23.80
1812;DHT22;904;47.814;11.134;2023-09-07T12:54:38;39.30;24.70
1812;DHT22;904;47.814;11.134;2023-09-07T12:57:06;38.80;25.80
1812;DHT22;904;47.814;11.134;2023-09-07T12:59:33;38.30;26.60
1812;DHT22;904;47.814;11.134;2023-09-07T13:02:00;37.80;26.90
1812;DHT22;904;47.814;11.134;2023-09-07T13:04:28;37.30;27.60
1812;DHT22;904;47.814;11.134;2023-09-07T13:06:55;37.00;27.90
1812;DHT22;904;47.814;11.134;2023-09-07T13:09:24;36.60;28.60
1812;DHT22;904;47.814;11.134;2023-09-07T13:11:51;36.30;28.80
1812;DHT22;904;47.814;11.134;2023-09-07T13:14:19;36.00;29.40
1812;DHT22;904;47.814;11.134;2023-09-07T13:16:46;35.70;30.50
1812;DHT22;904;47.814;11.134;2023-09-07T13:19:13;35.30;31.10
1812;DHT22;904;47.814;11.134;2023-09-07T13:21:40;35.10;31.90
1812;DHT22;904;47.814;11.134;2023-09-07T13:24:07;34.80;32.60
1812;DHT22;904;47.814;11.134;2023-09-07T13:26:34;34.50;33.70
1812;DHT22;904;47.814;11.134;2023-09-07T13:29:01;34.30;33.30
1812;DHT22;904;47.814;11.134;2023-09-07T13:31:29;34.00;33.60
1812;DHT22;904;47.814;11.134;2023-09-07T13:33:56;33.80;34.60
1812;DHT22;904;47.814;11.134;2023-09-07T13:36:24;33.70;34.60
1812;DHT22;904;47.814;11.134;2023-09-07T13:38:51;33.50;34.90
1812;DHT22;904;47.814;11.134;2023-09-07T13:41:22;33.40;35.70
1812;DHT22;904;47.814;11.134;2023-09-07T13:43:49;33.20;36.00
1812;DHT22;904;47.814;11.134;2023-09-07T13:46:16;33.10;35.60
1812;DHT22;904;47.814;11.134;2023-09-07T13:48:44;33.00;35.40
1812;DHT22;904;47.814;11.134;2023-09-07T13:56:06;32.80;36.10
1812;DHT22;904;47.814;11.134;2023-09-07T13:58:33;32.50;38.30
1812;DHT22;904;47.814;11.134;2023-09-07T14:01:00;32.40;37.70
1812;DHT22;904;47.814;11.134;2023-09-07T14:03:27;32.40;37.20
1812;DHT22;904;47.814;11.134;2023-09-07T14:05:55;32.30;36.80
1812;DHT22;904;47.814;11.134;2023-09-07T14:08:22;32.20;36.90
1812;DHT22;904;47.814;11.134;2023-09-07T14:10:50;32.00;37.80
1812;DHT22;904;47.814;11.134;2023-09-07T14:13:18;32.00;38.40
1812;DHT22;904;47.814;11.134;2023-09-07T14:15:46;31.90;38.30
1812;DHT22;904;47.814;11.134;2023-09-07T14:18:13;31.80;39.10
1812;DHT22;904;47.814;11.134;2023-09-07T14:20:51;31.80;38.60
1812;DHT22;904;47.814;11.134;2023-09-07T14:23:24;31.70;38.80
1812;DHT22;904;47.814;11.134;2023-09-07T14:25:52;31.60;38.90
1812;DHT22;904;47.814;11.134;2023-09-07T14:28:19;31.50;38.70
1812;DHT22;904;47.814;11.134;2023-09-07T14:30:46;31.30;38.10
1812;DHT22;904;47.814;11.134;2023-09-07T14:33:13;31.20;38.60
1812;DHT22;904;47.814;11.134;2023-09-07T14:35:40;31.00;39.10
1812;DHT22;904;47.814;11.134;2023-09-07T14:38:07;30.90;40.00
1812;DHT22;904;47.814;11.134;2023-09-07T14:40:35;30.80;40.00
1812;DHT22;904;47.814;11.134;2023-09-07T14:43:04;30.60;39.70
